Ainsworth, Nebraska
Current Conditions -  °F | °C
As of 8:35 AM on Friday 31 Oct 2014 (Local Time) from KANW Reporting Station
Clear Clear  
Wind Chill: 20°   Ceiling: Unl
Heat Index: 20°   Visibility: 10mi
Dew Point: 17°   Wind: 3mph
Humidity: 89%   Direction: 150°SSE
Pressure: 30.52"   Gusts: NA
Location:  42.55°N, 99.86°W
Report Text: KANW 311335Z AUTO 15003KT 10SM CLR M07/M08 A3052 RMK AO2 T10671083
Loading
Personal Weather Stations






























Interactive Weather Map
Tropical Storm Tracking
New forecast layout! Learn more

10-Day Weather Forecast

Advertisements
Track Severe Weather on mobile